createdAt,value
2024-01-22T00:00:15.192Z,4.68
2024-01-22T00:02:42.170Z,4.68
2024-01-22T00:05:10.791Z,4.47
2024-01-22T00:07:38.119Z,5.03
2024-01-22T00:10:06.291Z,4.60
2024-01-22T00:12:33.153Z,3.78
2024-01-22T00:14:59.816Z,3.45
2024-01-22T00:17:26.511Z,3.85
2024-01-22T00:19:53.239Z,4.47
2024-01-22T00:22:20.002Z,3.58
2024-01-22T00:24:46.813Z,3.58
2024-01-22T00:27:13.552Z,3.83
2024-01-22T00:29:40.223Z,2.65
2024-01-22T00:32:07.510Z,3.25
2024-01-22T00:34:34.222Z,3.00
2024-01-22T00:37:01.453Z,2.90
2024-01-22T00:39:28.092Z,3.05
2024-01-22T00:41:55.152Z,2.80
2024-01-22T00:44:21.818Z,2.45
2024-01-22T00:46:48.530Z,3.03
2024-01-22T00:49:15.342Z,2.75
2024-01-22T00:51:42.043Z,3.03
2024-01-22T00:54:08.742Z,2.58
2024-01-22T00:56:35.658Z,3.88
2024-01-22T00:59:02.535Z,2.47
2024-01-22T01:01:32.097Z,2.10
2024-01-22T01:03:59.203Z,2.20
2024-01-22T01:06:25.888Z,1.70
2024-01-22T01:08:52.565Z,2.33
2024-01-22T01:11:19.199Z,1.98
2024-01-22T01:13:45.811Z,1.70
2024-01-22T01:16:12.435Z,1.75
2024-01-22T01:18:39.364Z,1.77
2024-01-22T01:21:06.565Z,1.85
2024-01-22T01:23:34.553Z,1.63
2024-01-22T01:26:01.769Z,1.45
2024-01-22T01:28:28.439Z,1.70
2024-01-22T01:30:55.224Z,1.67
2024-01-22T01:33:22.065Z,1.33
2024-01-22T01:35:48.855Z,1.20
2024-01-22T01:38:15.524Z,1.45
2024-01-22T01:40:42.564Z,1.70
2024-01-22T01:43:09.743Z,1.30
2024-01-22T01:45:36.500Z,1.10
2024-01-22T01:48:03.765Z,1.25
2024-01-22T01:50:30.539Z,1.33
2024-01-22T01:52:57.550Z,0.80
2024-01-22T01:55:24.815Z,1.10
2024-01-22T01:57:57.538Z,1.60
2024-01-22T02:00:27.707Z,1.17
2024-01-22T02:02:54.510Z,0.85
2024-01-22T02:05:21.532Z,1.63
2024-01-22T02:07:48.686Z,1.52
2024-01-22T02:10:15.512Z,1.20
2024-01-22T02:12:42.426Z,1.27
2024-01-22T02:17:36.966Z,1.23
2024-01-22T02:20:04.290Z,1.98
2024-01-22T02:22:30.938Z,1.85
2024-01-22T02:24:58.138Z,1.75
2024-01-22T02:27:25.108Z,1.70
2024-01-22T02:29:51.793Z,1.52
2024-01-22T02:32:18.495Z,1.83
2024-01-22T02:34:45.616Z,1.50
2024-01-22T02:37:12.394Z,1.88
2024-01-22T02:39:39.068Z,1.98
2024-01-22T02:42:06.194Z,3.20
2024-01-22T02:44:35.884Z,2.25
2024-01-22T02:47:03.678Z,1.90
2024-01-22T02:49:30.560Z,2.40
2024-01-22T02:51:57.376Z,2.80
2024-01-22T02:54:24.018Z,3.03
2024-01-22T02:56:51.084Z,3.05
2024-01-22T02:59:20.153Z,2.95
2024-01-22T03:01:46.971Z,2.17
2024-01-22T03:04:13.639Z,2.20
2024-01-22T03:06:40.590Z,2.53
2024-01-22T03:09:08.067Z,1.23
2024-01-22T03:11:34.780Z,1.30
2024-01-22T03:14:01.914Z,1.67
2024-01-22T03:16:28.560Z,1.20
2024-01-22T03:18:55.365Z,1.10
2024-01-22T03:23:48.680Z,2.22
2024-01-22T03:26:22.466Z,1.15
2024-01-22T03:28:50.511Z,0.95
2024-01-22T03:31:24.880Z,1.00
2024-01-22T03:33:55.736Z,0.65
2024-01-22T03:36:23.808Z,1.00
2024-01-22T03:38:51.459Z,0.80
2024-01-22T03:41:18.369Z,0.90
2024-01-22T03:46:13.425Z,0.80
2024-01-22T03:48:41.500Z,1.00
2024-01-22T03:51:08.828Z,0.98
2024-01-22T03:53:35.945Z,1.25
2024-01-22T03:56:05.561Z,0.70
2024-01-22T03:58:34.123Z,0.70
2024-01-22T04:01:02.265Z,0.85
2024-01-22T04:03:29.203Z,0.80
2024-01-22T04:05:56.077Z,0.80
2024-01-22T04:08:22.748Z,0.80
2024-01-22T04:10:49.449Z,0.95
2024-01-22T04:13:16.109Z,1.02
2024-01-22T04:15:42.794Z,0.75
2024-01-22T04:18:09.588Z,0.80
2024-01-22T04:23:02.837Z,0.63
2024-01-22T04:25:29.525Z,0.82
2024-01-22T04:27:57.824Z,0.90
2024-01-22T04:30:24.887Z,0.82
2024-01-22T04:32:52.044Z,0.95
2024-01-22T04:35:18.740Z,0.90
2024-01-22T04:37:45.367Z,0.88
2024-01-22T04:40:14.550Z,0.65
2024-01-22T04:42:45.406Z,0.80
2024-01-22T04:45:12.202Z,1.15
2024-01-22T04:47:39.083Z,1.20
2024-01-22T04:50:06.404Z,1.15
2024-01-22T04:52:33.000Z,0.70
2024-01-22T04:55:05.653Z,1.23
2024-01-22T04:57:40.238Z,1.40
2024-01-22T05:02:34.661Z,0.73
2024-01-22T05:05:02.505Z,0.88
2024-01-22T05:07:29.276Z,0.98
2024-01-22T05:10:06.095Z,1.38
2024-01-22T05:12:32.916Z,0.77
2024-01-22T05:14:59.557Z,1.38
2024-01-22T05:17:27.915Z,0.90
2024-01-22T05:19:54.678Z,1.13
2024-01-22T05:22:21.898Z,0.95
2024-01-22T05:24:48.839Z,1.58
2024-01-22T05:27:15.878Z,1.05
2024-01-22T05:29:43.107Z,1.10
2024-01-22T05:32:09.906Z,1.30
2024-01-22T05:34:36.613Z,1.13
2024-01-22T05:37:03.407Z,1.17
2024-01-22T05:39:30.021Z,0.98
2024-01-22T05:41:56.738Z,1.90
2024-01-22T05:44:24.128Z,1.20
2024-01-22T05:46:51.174Z,0.98
2024-01-22T05:49:20.001Z,1.50
2024-01-22T05:51:47.233Z,1.20
2024-01-22T05:54:14.514Z,1.60
2024-01-22T05:56:41.457Z,1.30
2024-01-22T06:01:34.706Z,1.75
2024-01-22T06:04:01.626Z,1.33
2024-01-22T06:06:28.473Z,1.25
2024-01-22T06:08:55.403Z,1.05
2024-01-22T06:13:57.865Z,1.15
2024-01-22T06:16:28.721Z,1.40
2024-01-22T06:18:55.493Z,1.05
2024-01-22T06:23:49.352Z,1.75
2024-01-22T06:26:18.296Z,1.63
2024-01-22T06:28:45.070Z,2.30
2024-01-22T06:31:11.788Z,1.58
2024-01-22T06:33:38.709Z,1.52
2024-01-22T06:36:07.740Z,1.15
2024-01-22T06:38:35.394Z,1.42
2024-01-22T06:41:02.017Z,1.70
2024-01-22T06:43:28.675Z,1.60
2024-01-22T06:45:55.625Z,1.67
2024-01-22T06:50:49.434Z,1.65
2024-01-22T06:53:17.362Z,0.90
2024-01-22T06:55:43.974Z,1.25
2024-01-22T06:58:10.610Z,1.10
2024-01-22T07:00:37.759Z,1.08
2024-01-22T07:03:05.546Z,1.35
2024-01-22T07:05:34.399Z,1.80
2024-01-22T07:08:01.414Z,1.05
2024-01-22T07:10:28.328Z,1.23
2024-01-22T07:15:21.992Z,1.27
2024-01-22T07:17:49.024Z,1.10
2024-01-22T07:20:16.934Z,1.40
2024-01-22T07:22:47.851Z,1.20
2024-01-22T07:25:17.451Z,0.82
2024-01-22T07:27:46.355Z,1.20
2024-01-22T07:30:14.374Z,1.10
2024-01-22T07:32:43.436Z,1.00
2024-01-22T07:35:14.703Z,0.95
2024-01-22T07:37:43.577Z,0.82
2024-01-22T07:40:11.128Z,0.70
2024-01-22T07:42:40.329Z,1.05
2024-01-22T07:45:08.028Z,0.82
2024-01-22T07:47:35.684Z,0.73
2024-01-22T07:50:06.924Z,0.22
2024-01-22T07:52:34.907Z,0.70
2024-01-22T07:55:07.050Z,0.30
2024-01-22T07:57:34.547Z,0.28
2024-01-22T08:00:01.778Z,0.20
2024-01-22T08:02:28.486Z,0.25
2024-01-22T08:04:55.088Z,0.20
2024-01-22T08:07:21.932Z,0.10
2024-01-22T08:12:16.079Z,0.32
2024-01-22T08:14:43.756Z,0.30
2024-01-22T08:17:10.448Z,0.68
2024-01-22T08:19:37.361Z,0.30
2024-01-22T08:22:04.517Z,0.70
2024-01-22T08:24:32.440Z,0.30
2024-01-22T08:26:59.534Z,0.30
2024-01-22T08:29:26.195Z,0.47
2024-01-22T08:31:54.293Z,0.35
2024-01-22T08:34:21.787Z,0.32
2024-01-22T08:36:48.552Z,0.93
2024-01-22T08:39:15.404Z,0.40
2024-01-22T08:44:08.800Z,0.20
2024-01-22T08:46:35.505Z,0.40
2024-01-22T08:49:02.371Z,0.30
2024-01-22T08:51:29.550Z,0.38
2024-01-22T08:53:56.447Z,0.32
2024-01-22T08:56:23.209Z,0.10
2024-01-22T08:58:50.041Z,0.65
2024-01-22T09:03:43.805Z,0.50
2024-01-22T09:06:11.128Z,0.40
2024-01-22T09:08:38.001Z,0.50
2024-01-22T09:13:31.414Z,0.28
2024-01-22T09:15:59.030Z,0.20
2024-01-22T09:18:27.822Z,0.22
2024-01-22T09:20:56.192Z,0.30
2024-01-22T09:23:22.875Z,0.43
2024-01-22T09:25:49.528Z,0.28
2024-01-22T09:28:16.224Z,0.65
2024-01-22T09:30:42.942Z,0.38
2024-01-22T09:33:11.296Z,0.57
2024-01-22T09:35:42.492Z,0.60
2024-01-22T09:38:09.324Z,1.15
2024-01-22T09:40:36.171Z,1.40
2024-01-22T09:43:05.564Z,1.00
2024-01-22T09:45:34.623Z,0.98
2024-01-22T09:48:02.400Z,0.35
2024-01-22T09:50:29.463Z,0.45
2024-01-22T09:53:10.767Z,0.25
2024-01-22T09:55:42.250Z,0.50
2024-01-22T09:58:10.782Z,0.50
2024-01-22T10:00:39.515Z,0.20
2024-01-22T10:03:06.956Z,0.28
2024-01-22T10:05:33.863Z,0.10
2024-01-22T10:08:00.608Z,0.13
2024-01-22T10:10:28.069Z,0.25
2024-01-22T10:12:59.869Z,0.73
2024-01-22T10:15:28.378Z,0.17
2024-01-22T10:18:25.296Z,0.10
2024-01-22T10:20:58.135Z,0.10
2024-01-22T10:23:24.791Z,0.00
2024-01-22T10:25:51.431Z,0.20
2024-01-22T10:28:19.901Z,0.10
2024-01-22T10:31:09.970Z,0.20
2024-01-22T10:33:37.368Z,0.40
2024-01-22T10:36:14.184Z,0.40
2024-01-22T10:38:40.902Z,0.28
2024-01-22T10:41:21.308Z,0.10
2024-01-22T10:43:48.324Z,0.20
2024-01-22T10:46:15.769Z,0.50
2024-01-22T10:48:46.933Z,0.50
2024-01-22T10:51:16.295Z,0.38
2024-01-22T10:53:44.674Z,0.35
2024-01-22T10:56:18.779Z,0.35
2024-01-22T10:58:48.752Z,0.20
2024-01-22T11:01:19.691Z,0.10
2024-01-22T11:03:52.159Z,0.30
2024-01-22T11:06:25.524Z,0.52
2024-01-22T11:08:55.080Z,0.77
2024-01-22T11:11:25.574Z,0.50
2024-01-22T11:13:57.385Z,0.80
2024-01-22T11:16:24.787Z,0.52
2024-01-22T11:18:59.252Z,0.10
2024-01-22T11:21:33.955Z,0.20
2024-01-22T11:24:17.614Z,0.22
2024-01-22T11:26:47.704Z,0.17
2024-01-22T11:29:15.845Z,0.52
2024-01-22T11:31:43.123Z,0.10
2024-01-22T11:34:12.653Z,0.10
2024-01-22T11:37:06.213Z,0.20
2024-01-22T11:39:36.313Z,0.10
2024-01-22T11:42:19.382Z,0.13
2024-01-22T11:44:50.103Z,0.17
2024-01-22T11:47:20.214Z,0.20
2024-01-22T11:49:47.306Z,0.10
2024-01-22T11:52:14.966Z,0.05
2024-01-22T11:55:04.597Z,0.20
2024-01-22T11:57:36.995Z,0.20
2024-01-22T12:00:11.551Z,0.03
2024-01-22T12:02:43.252Z,0.00
2024-01-22T12:05:18.630Z,0.00
2024-01-22T12:07:47.383Z,0.00
2024-01-22T12:10:26.206Z,0.00
2024-01-22T12:12:54.197Z,0.05
2024-01-22T12:15:22.693Z,0.08
2024-01-22T12:17:49.847Z,0.10
2024-01-22T12:20:17.667Z,0.20
2024-01-22T12:22:44.468Z,0.10
2024-01-22T12:25:14.931Z,0.10
2024-01-22T12:27:41.684Z,0.08
2024-01-22T12:30:10.624Z,0.10
2024-01-22T12:32:39.305Z,0.15
2024-01-22T12:35:09.800Z,0.10
2024-01-22T12:37:37.022Z,0.10
2024-01-22T12:40:18.086Z,0.20
2024-01-22T12:42:45.219Z,0.10
2024-01-22T12:47:43.421Z,0.32
2024-01-22T12:50:11.487Z,0.55
2024-01-22T12:52:40.096Z,0.40
2024-01-22T12:55:09.713Z,0.30
2024-01-22T12:57:37.291Z,0.70
2024-01-22T13:00:10.083Z,0.20
2024-01-22T13:02:40.984Z,0.28
2024-01-22T13:05:08.349Z,0.30
2024-01-22T13:07:35.360Z,0.20
2024-01-22T13:10:02.713Z,0.30
2024-01-22T13:12:29.641Z,0.03
2024-01-22T13:14:57.251Z,0.38
2024-01-22T13:17:24.064Z,0.30
2024-01-22T13:22:17.665Z,0.28
2024-01-22T13:27:11.381Z,0.00
2024-01-22T13:29:38.066Z,0.10
2024-01-22T13:32:05.576Z,0.40
2024-01-22T13:34:32.555Z,0.10
2024-01-22T13:39:27.225Z,0.10
2024-01-22T13:41:54.046Z,0.60
2024-01-22T13:44:20.990Z,0.10
2024-01-22T13:46:48.007Z,0.32
2024-01-22T13:49:15.456Z,0.50
2024-01-22T13:51:42.362Z,0.08
2024-01-22T13:54:09.106Z,0.20
2024-01-22T13:56:36.885Z,0.20
2024-01-22T13:59:04.705Z,0.25
2024-01-22T14:01:32.115Z,0.40
2024-01-22T14:03:59.035Z,0.50
2024-01-22T14:06:26.303Z,0.60
2024-01-22T14:08:53.167Z,0.60
2024-01-22T14:11:20.652Z,0.50
2024-01-22T14:13:48.197Z,0.30
2024-01-22T14:16:16.337Z,0.55
2024-01-22T14:18:43.701Z,0.50
2024-01-22T14:21:10.906Z,0.68
2024-01-22T14:23:37.943Z,0.30
2024-01-22T14:26:05.410Z,0.30
2024-01-22T14:28:32.158Z,0.40
2024-01-22T14:30:59.148Z,0.30
2024-01-22T14:35:54.807Z,0.63
2024-01-22T14:38:28.901Z,0.65
2024-01-22T14:41:00.706Z,0.47
2024-01-22T14:43:31.885Z,0.60
2024-01-22T14:45:58.532Z,0.80
2024-01-22T14:48:26.975Z,1.00
2024-01-22T14:50:53.841Z,0.60
2024-01-22T14:55:48.547Z,0.60
2024-01-22T14:58:15.311Z,0.63
2024-01-22T15:00:42.121Z,0.50
2024-01-22T15:03:08.872Z,1.17
2024-01-22T15:05:36.160Z,1.10
2024-01-22T15:08:02.935Z,1.15
2024-01-22T15:10:33.500Z,1.35
2024-01-22T15:13:03.002Z,0.80
2024-01-22T15:15:32.415Z,0.70
2024-01-22T15:17:59.427Z,1.30
2024-01-22T15:20:26.249Z,0.82
2024-01-22T15:25:20.003Z,0.68
2024-01-22T15:27:48.181Z,1.10
2024-01-22T15:30:15.429Z,1.08
2024-01-22T15:35:09.774Z,1.42
2024-01-22T15:37:37.555Z,0.60
2024-01-22T15:40:05.040Z,0.70
2024-01-22T15:42:31.971Z,0.50
2024-01-22T15:44:59.126Z,0.45
2024-01-22T15:49:52.602Z,1.08
2024-01-22T15:52:19.239Z,0.85
2024-01-22T15:54:45.942Z,1.20
2024-01-22T15:57:13.367Z,0.77
2024-01-22T15:59:40.103Z,1.17
2024-01-22T16:02:07.094Z,1.15
2024-01-22T16:04:35.241Z,1.20
2024-01-22T16:07:10.357Z,1.10
2024-01-22T16:09:42.916Z,1.00
2024-01-22T16:12:10.691Z,0.95
2024-01-22T16:14:37.534Z,1.52
2024-01-22T16:17:05.819Z,0.70
2024-01-22T16:19:36.381Z,1.67
2024-01-22T16:22:06.388Z,1.23
2024-01-22T16:24:33.725Z,0.95
2024-01-22T16:27:00.877Z,1.40
2024-01-22T16:29:29.366Z,0.80
2024-01-22T16:31:56.770Z,1.40
2024-01-22T16:34:24.517Z,1.15
2024-01-22T16:36:51.687Z,1.95
2024-01-22T16:39:19.878Z,1.48
2024-01-22T16:41:47.207Z,1.73
2024-01-22T16:44:13.884Z,1.65
2024-01-22T16:46:42.872Z,1.58
2024-01-22T16:49:10.540Z,1.08
2024-01-22T16:51:37.882Z,0.73
2024-01-22T16:54:04.657Z,1.00
2024-01-22T16:56:31.272Z,1.00
2024-01-22T16:58:59.066Z,1.35
2024-01-22T17:01:26.135Z,1.00
2024-01-22T17:03:52.866Z,1.70
2024-01-22T17:06:23.282Z,0.80
2024-01-22T17:08:52.559Z,1.48
2024-01-22T17:11:20.600Z,1.27
2024-01-22T17:13:47.374Z,1.65
2024-01-22T17:18:42.348Z,1.35
2024-01-22T17:21:09.502Z,1.20
2024-01-22T17:23:38.809Z,1.30
2024-01-22T17:26:09.653Z,1.85
2024-01-22T17:28:38.029Z,1.83
2024-01-22T17:31:04.944Z,1.05
2024-01-22T17:35:58.626Z,1.50
2024-01-22T17:38:25.840Z,2.03
2024-01-22T17:40:53.083Z,1.67
2024-01-22T17:43:19.878Z,2.22
2024-01-22T17:45:46.642Z,2.97
2024-01-22T17:48:14.111Z,3.10
2024-01-22T17:50:40.898Z,1.20
2024-01-22T17:53:07.507Z,1.95
2024-01-22T17:55:34.415Z,1.70
2024-01-22T17:58:01.284Z,2.13
2024-01-22T18:00:28.401Z,1.95
2024-01-22T18:02:55.147Z,1.65
2024-01-22T18:05:21.907Z,2.20
2024-01-22T18:07:48.503Z,2.33
2024-01-22T18:10:15.863Z,2.47
2024-01-22T18:12:43.446Z,2.38
2024-01-22T18:15:10.325Z,1.60
2024-01-22T18:20:05.018Z,2.03
2024-01-22T18:22:32.202Z,2.35
2024-01-22T18:24:58.914Z,1.80
2024-01-22T18:29:53.364Z,1.50
2024-01-22T18:32:20.063Z,1.35
2024-01-22T18:34:46.806Z,1.52
2024-01-22T18:37:16.534Z,2.08
2024-01-22T18:39:43.373Z,1.65
2024-01-22T18:42:10.088Z,1.95
2024-01-22T18:44:37.032Z,2.55
2024-01-22T18:49:33.497Z,1.52
2024-01-22T18:52:01.022Z,1.50
2024-01-22T18:54:27.714Z,2.40
2024-01-22T18:56:54.421Z,2.85
2024-01-22T18:59:21.304Z,2.10
2024-01-22T19:04:15.983Z,1.90
2024-01-22T19:06:42.784Z,1.98
2024-01-22T19:09:09.917Z,2.35
2024-01-22T19:11:37.088Z,1.58
2024-01-22T19:14:03.686Z,2.30
2024-01-22T19:16:30.388Z,1.63
2024-01-22T19:18:57.181Z,1.80
2024-01-22T19:21:24.109Z,1.73
2024-01-22T19:23:51.224Z,2.80
2024-01-22T19:26:18.153Z,3.47
2024-01-22T19:28:44.789Z,2.22
2024-01-22T19:31:11.420Z,1.50
2024-01-22T19:33:38.121Z,1.63
2024-01-22T19:36:05.536Z,1.55
2024-01-22T19:38:32.235Z,1.80
2024-01-22T19:40:58.842Z,1.70
2024-01-22T19:43:28.197Z,1.60
2024-01-22T19:45:55.410Z,1.77
2024-01-22T19:48:22.106Z,2.78
2024-01-22T19:50:48.970Z,1.80
2024-01-22T19:55:42.186Z,1.30
2024-01-22T19:58:09.321Z,1.67
2024-01-22T20:00:36.477Z,1.88
2024-01-22T20:03:04.264Z,1.50
2024-01-22T20:05:30.952Z,1.65
2024-01-22T20:07:57.712Z,1.55
2024-01-22T20:10:26.052Z,1.67
2024-01-22T20:12:53.179Z,2.60
2024-01-22T20:17:46.630Z,1.73
2024-01-22T20:20:13.543Z,1.25
2024-01-22T20:25:07.060Z,2.13
2024-01-22T20:27:35.544Z,1.75
2024-01-22T20:30:02.693Z,2.03
2024-01-22T20:32:29.370Z,1.90
2024-01-22T20:34:56.103Z,2.15
2024-01-22T20:37:22.831Z,2.00
2024-01-22T20:39:49.544Z,2.20
2024-01-22T20:42:16.344Z,1.30
2024-01-22T20:44:43.029Z,1.45
2024-01-22T20:47:09.977Z,1.42
2024-01-22T20:52:03.627Z,1.08
2024-01-22T20:54:30.959Z,1.52
2024-01-22T20:56:58.006Z,1.40
2024-01-22T21:01:51.731Z,1.30
2024-01-22T21:06:46.135Z,1.58
2024-01-22T21:09:16.152Z,1.30
2024-01-22T21:11:44.384Z,1.70
2024-01-22T21:14:11.560Z,1.88
2024-01-22T21:16:39.125Z,1.58
2024-01-22T21:19:06.046Z,1.52
2024-01-22T21:21:33.642Z,1.52
2024-01-22T21:24:00.876Z,1.75
2024-01-22T21:26:27.659Z,1.42
2024-01-22T21:28:54.342Z,1.95
2024-01-22T21:31:21.233Z,1.35
2024-01-22T21:33:52.072Z,1.98
2024-01-22T21:36:18.923Z,1.50
2024-01-22T21:38:45.604Z,1.27
2024-01-22T21:41:14.444Z,1.60
2024-01-22T21:43:41.159Z,1.58
2024-01-22T21:46:07.950Z,1.85
2024-01-22T21:48:34.870Z,1.83
2024-01-22T21:53:28.304Z,1.27
2024-01-22T21:55:55.724Z,1.50
2024-01-22T21:58:22.444Z,1.30
2024-01-22T22:00:49.364Z,1.45
2024-01-22T22:03:17.358Z,2.10
2024-01-22T22:05:44.539Z,1.95
2024-01-22T22:10:40.182Z,1.58
2024-01-22T22:13:07.082Z,1.13
2024-01-22T22:15:33.809Z,1.52
2024-01-22T22:20:27.507Z,1.45
2024-01-22T22:22:54.151Z,1.15
2024-01-22T22:25:20.828Z,1.23
2024-01-22T22:27:47.689Z,0.63
2024-01-22T22:30:14.514Z,1.17
2024-01-22T22:32:41.370Z,0.95
2024-01-22T22:35:08.327Z,0.70
2024-01-22T22:40:01.574Z,1.92
2024-01-22T22:42:28.316Z,0.80
2024-01-22T22:44:55.019Z,1.20
2024-01-22T22:47:22.649Z,1.50
2024-01-22T22:49:49.408Z,1.00
2024-01-22T22:52:16.242Z,0.80
2024-01-22T22:54:45.928Z,1.10
2024-01-22T22:57:13.055Z,1.15
2024-01-22T22:59:39.841Z,1.00
2024-01-22T23:02:06.597Z,1.33
2024-01-22T23:04:33.401Z,0.73
2024-01-22T23:09:27.812Z,1.10
2024-01-22T23:11:55.310Z,2.17
2024-01-22T23:14:22.067Z,1.15
2024-01-22T23:16:48.706Z,1.25
2024-01-22T23:19:15.349Z,1.30
2024-01-22T23:21:42.305Z,1.30
2024-01-22T23:26:35.747Z,1.35
2024-01-22T23:29:02.352Z,1.15
2024-01-22T23:31:29.084Z,0.98
2024-01-22T23:33:55.840Z,1.50
2024-01-22T23:38:50.493Z,1.27
2024-01-22T23:41:17.167Z,1.20
2024-01-22T23:43:43.810Z,1.80
2024-01-22T23:46:11.151Z,1.10
2024-01-22T23:48:37.811Z,1.23
2024-01-22T23:51:04.814Z,1.55
2024-01-22T23:53:31.539Z,1.92
2024-01-22T23:55:58.230Z,1.10
2024-01-22T23:58:24.865Z,1.05
